Aviation Digital Data Service (ADDS)

Output produced by METARs form (1232 UTC 26 May 2016)
found at http://www.aviationweather.gov/adds/metars/
 
KCXY 261156Z 00000KT 9SM SCT120 19/14 A3013 RMK AO2 SLP203 T01940144 10211 20150 52009
KCXY 261056Z 00000KT 9SM CLR 17/13 A3012 RMK AO2 SLP200 T01670128
KCXY 260956Z AUTO 00000KT 9SM CLR 16/12 A3012 RMK AO2 SLP198 T01560122
KCXY 260856Z AUTO 26003KT 10SM CLR 16/12 A3011 RMK AO2 SLP195 T01560122 53005
KCXY 260756Z AUTO 00000KT 10SM CLR 16/12 A3010 RMK AO2 SLP192 T01610122
KCXY 260656Z AUTO 00000KT 10SM CLR 17/12 A3009 RMK AO2 SLP189 T01720122
KCXY 260556Z AUTO 35003KT 10SM CLR 21/12 A3009 RMK AO2 SLP188 T02110122 10261 20206 58001
KCXY 260456Z AUTO 27006KT 10SM CLR 21/12 A3009 RMK AO2 SLP189 T02060117 403060156
KCXY 260356Z AUTO 27006KT 10SM CLR 21/11 A3010 RMK AO2 SLP190 T02110111
KCXY 260256Z AUTO 24006KT 10SM CLR 24/10 A3010 RMK AO2 SLP190 T02440100 51007
KCXY 260156Z AUTO 23006KT 10SM CLR 25/10 A3009 RMK AO2 SLP189 T02500100
KCXY 260056Z AUTO 22008KT 10SM CLR 26/10 A3008 RMK AO2 SLP185 T02610100
KCXY 252356Z AUTO 21007KT 10SM CLR 26/11 A3007 RMK AO2 SLP183 T02610106 10300 20261 55003
KCXY 252256Z 20008KT 10SM CLR 28/09 A3007 RMK AO2 SLP181 T02830094
KCXY 252156Z 21007KT 10SM CLR 29/10 A3008 RMK AO2 SLP185 T02890100
KCXY 252056Z 21009KT 10SM CLR 29/09 A3008 RMK AO2 SLP186 T02890094 58006
KCXY 251956Z 25009KT 10SM CLR 30/09 A3009 RMK AO2 SLP189 T03000094
KCXY 251856Z 24007KT 10SM CLR 29/09 A3010 RMK AO2 SLP191 T02940094
KCXY 251756Z 25008KT 10SM CLR 29/09 A3010 RMK AO2 SLP191 T02940089 10306 20189 58009
KCXY 251656Z 27007KT 240V310 10SM CLR 29/11 A3012 RMK AO2 SLP198 T02940111
KCXY 251556Z 29009KT 10SM CLR 28/12 A3013 RMK AO2 SLP203 T02780122
KCXY 251456Z 27008KT 10SM CLR 26/12 A3013 RMK AO2 SLP202 T02610122 58001
KCXY 251356Z 24007KT 10SM CLR 24/12 A3013 RMK AO2 SLP202 T02440122
KCXY 251256Z 27008KT 10SM CLR 22/11 A3014 RMK AO2 SLP205 T02170111
KCXY 251156Z 27006KT 10SM CLR 19/11 A3013 RMK AO2 SLP203 T01890106 10189 20156 51017
KCXY 251056Z 26003KT 10SM CLR 16/09 A3012 RMK AO2 SLP200 T01610094
KCXY 250956Z AUTO 31004KT 10SM CLR 16/09 A3009 RMK AO2 SLP190 T01560089
KCXY 250856Z AUTO 31004KT 10SM CLR 16/08 A3008 RMK AO2 SLP186 T01610083 53010
KCXY 250756Z AUTO 00000KT 10SM CLR 17/09 A3006 RMK AO2 SLP180 T01720089
KCXY 250656Z AUTO 00000KT 10SM CLR 18/08 A3006 RMK AO2 SLP177 T01830083
KCXY 250556Z AUTO VRB03KT 10SM CLR 19/08 A3005 RMK AO2 SLP176 T01890078 10256 20189 51011
KCXY 250456Z AUTO VRB03KT 10SM CLR 19/08 A3005 RMK AO2 SLP173 T01940078 402890133
KCXY 250356Z AUTO 27004KT 10SM CLR 19/08 A3003 RMK AO2 SLP170 T01890078
KCXY 250256Z AUTO 25008KT 10SM CLR 21/08 A3002 RMK AO2 SLP165 T02060078 53021
KCXY 250156Z AUTO 26009KT 10SM CLR 21/08 A3000 RMK AO2 SLP156 T02110078
KCXY 250056Z AUTO 26007KT 10SM CLR 23/07 A2997 RMK AO2 SLP148 T02330072